Aviation Digital Data Service (ADDS)

Output produced by METARs form (2030 UTC 22 February 2018)
found at http://www.aviationweather.gov/adds/metars/
 
METAR text: KDTL 222015Z AUTO 15009KT 7SM SCT030 SCT049 M04/M13 A3039 RMK AO2
Conditions at: KDTL (DETROIT LAKES , MN, US) observed 2015 UTC 22 February 2018
Temperature: -4.0°C (25°F)
Dewpoint: -13.0°C (9°F) [RH = 50%]
Pressure (altimeter): 30.39 inches Hg (1029.2 mb)
Winds: from the SSE (150 degrees) at 10 MPH (9 knots; 4.7 m/s)
Visibility: 7 miles (11 km)
Ceiling: at least 12,000 feet AGL
Clouds: scattered clouds at 3000 feet AGL
scattered clouds at 4900 feet AGL
Weather: automated observation with no human augmentation;
there may or may not be significant weather present at this time